sensor_id;sensor_type;location;lat;lon;timestamp;temperature;humidity
31379;DHT22;61664;48.112;11.662;2023-09-30T00:02:02;21.10;53.80
31379;DHT22;61664;48.112;11.662;2023-09-30T00:04:30;21.10;53.90
31379;DHT22;61664;48.112;11.662;2023-09-30T00:06:57;21.00;54.00
31379;DHT22;61664;48.112;11.662;2023-09-30T00:09:24;21.00;54.10
31379;DHT22;61664;48.112;11.662;2023-09-30T00:11:51;21.00;54.10
31379;DHT22;61664;48.112;11.662;2023-09-30T00:14:18;20.90;54.20
31379;DHT22;61664;48.112;11.662;2023-09-30T00:16:45;20.90;54.30
31379;DHT22;61664;48.112;11.662;2023-09-30T00:19:12;20.90;54.40
31379;DHT22;61664;48.112;11.662;2023-09-30T00:21:40;20.90;54.40
31379;DHT22;61664;48.112;11.662;2023-09-30T00:24:08;20.80;54.40
31379;DHT22;61664;48.112;11.662;2023-09-30T00:26:36;20.80;54.60
31379;DHT22;61664;48.112;11.662;2023-09-30T00:29:03;20.70;54.70
31379;DHT22;61664;48.112;11.662;2023-09-30T00:31:32;20.70;54.80
31379;DHT22;61664;48.112;11.662;2023-09-30T00:34:02;20.70;54.90
31379;DHT22;61664;48.112;11.662;2023-09-30T00:36:29;20.70;55.30
31379;DHT22;61664;48.112;11.662;2023-09-30T00:38:56;20.70;55.00
31379;DHT22;61664;48.112;11.662;2023-09-30T00:41:23;20.70;55.00
31379;DHT22;61664;48.112;11.662;2023-09-30T00:43:50;20.70;55.10
31379;DHT22;61664;48.112;11.662;2023-09-30T00:46:19;20.70;55.20
31379;DHT22;61664;48.112;11.662;2023-09-30T00:48:55;20.70;55.30
31379;DHT22;61664;48.112;11.662;2023-09-30T00:51:26;20.80;55.40
31379;DHT22;61664;48.112;11.662;2023-09-30T00:53:56;20.80;55.30
31379;DHT22;61664;48.112;11.662;2023-09-30T00:56:27;20.70;55.30
31379;DHT22;61664;48.112;11.662;2023-09-30T00:58:56;20.70;55.40
31379;DHT22;61664;48.112;11.662;2023-09-30T01:01:23;20.70;55.30
31379;DHT22;61664;48.112;11.662;2023-09-30T01:03:51;20.70;55.40
31379;DHT22;61664;48.112;11.662;2023-09-30T01:06:19;20.70;55.60
31379;DHT22;61664;48.112;11.662;2023-09-30T01:08:46;20.60;55.50
31379;DHT22;61664;48.112;11.662;2023-09-30T01:11:14;20.60;55.60
31379;DHT22;61664;48.112;11.662;2023-09-30T01:13:42;20.60;55.70
31379;DHT22;61664;48.112;11.662;2023-09-30T01:16:11;20.60;55.70
31379;DHT22;61664;48.112;11.662;2023-09-30T01:18:39;20.60;55.70
31379;DHT22;61664;48.112;11.662;2023-09-30T01:21:10;20.50;55.90
31379;DHT22;61664;48.112;11.662;2023-09-30T01:23:38;20.60;56.00
31379;DHT22;61664;48.112;11.662;2023-09-30T01:26:11;20.50;56.00
31379;DHT22;61664;48.112;11.662;2023-09-30T01:28:39;20.60;56.30
31379;DHT22;61664;48.112;11.662;2023-09-30T01:31:07;20.60;56.10
31379;DHT22;61664;48.112;11.662;2023-09-30T01:33:34;20.60;56.10
31379;DHT22;61664;48.112;11.662;2023-09-30T01:36:02;20.60;56.30
31379;DHT22;61664;48.112;11.662;2023-09-30T01:38:29;20.60;56.30
31379;DHT22;61664;48.112;11.662;2023-09-30T01:40:56;20.60;56.20
31379;DHT22;61664;48.112;11.662;2023-09-30T01:43:26;20.60;56.30
31379;DHT22;61664;48.112;11.662;2023-09-30T01:45:54;20.60;56.30
31379;DHT22;61664;48.112;11.662;2023-09-30T01:48:21;20.60;56.40
31379;DHT22;61664;48.112;11.662;2023-09-30T01:50:48;20.60;56.40
31379;DHT22;61664;48.112;11.662;2023-09-30T01:53:15;20.60;56.40
31379;DHT22;61664;48.112;11.662;2023-09-30T01:55:42;20.60;56.50
31379;DHT22;61664;48.112;11.662;2023-09-30T01:58:11;20.60;56.60
31379;DHT22;61664;48.112;11.662;2023-09-30T02:00:38;20.60;56.60
31379;DHT22;61664;48.112;11.662;2023-09-30T02:03:05;20.60;56.80
31379;DHT22;61664;48.112;11.662;2023-09-30T02:05:32;20.60;56.80
31379;DHT22;61664;48.112;11.662;2023-09-30T02:07:59;20.70;56.80
31379;DHT22;61664;48.112;11.662;2023-09-30T02:10:26;20.70;56.90
31379;DHT22;61664;48.112;11.662;2023-09-30T02:12:53;20.70;56.70
31379;DHT22;61664;48.112;11.662;2023-09-30T02:15:20;20.70;56.70
31379;DHT22;61664;48.112;11.662;2023-09-30T02:17:47;20.70;56.70
31379;DHT22;61664;48.112;11.662;2023-09-30T02:20:16;20.70;56.60
31379;DHT22;61664;48.112;11.662;2023-09-30T02:22:46;20.70;56.60
31379;DHT22;61664;48.112;11.662;2023-09-30T02:25:14;20.70;56.60
31379;DHT22;61664;48.112;11.662;2023-09-30T02:27:42;20.70;56.70
31379;DHT22;61664;48.112;11.662;2023-09-30T02:30:10;20.70;56.80
31379;DHT22;61664;48.112;11.662;2023-09-30T02:32:39;20.60;57.30
31379;DHT22;61664;48.112;11.662;2023-09-30T02:35:09;20.60;57.00
31379;DHT22;61664;48.112;11.662;2023-09-30T02:37:42;20.60;57.00
31379;DHT22;61664;48.112;11.662;2023-09-30T02:40:09;20.60;57.10
31379;DHT22;61664;48.112;11.662;2023-09-30T02:42:38;20.60;57.10
31379;DHT22;61664;48.112;11.662;2023-09-30T02:45:07;20.60;57.20
31379;DHT22;61664;48.112;11.662;2023-09-30T02:47:36;20.60;57.30
31379;DHT22;61664;48.112;11.662;2023-09-30T02:50:08;20.60;57.30
31379;DHT22;61664;48.112;11.662;2023-09-30T02:52:38;20.60;57.50
31379;DHT22;61664;48.112;11.662;2023-09-30T02:55:11;20.60;57.20
31379;DHT22;61664;48.112;11.662;2023-09-30T02:57:39;20.60;57.50
31379;DHT22;61664;48.112;11.662;2023-09-30T03:00:08;20.60;57.20
31379;DHT22;61664;48.112;11.662;2023-09-30T03:02:54;20.60;57.20
31379;DHT22;61664;48.112;11.662;2023-09-30T03:05:22;20.60;57.20
31379;DHT22;61664;48.112;11.662;2023-09-30T03:07:50;20.60;57.40
31379;DHT22;61664;48.112;11.662;2023-09-30T03:10:17;20.50;57.30
31379;DHT22;61664;48.112;11.662;2023-09-30T03:12:47;20.50;57.40
31379;DHT22;61664;48.112;11.662;2023-09-30T03:15:15;20.50;57.40
31379;DHT22;61664;48.112;11.662;2023-09-30T03:17:42;20.40;57.40
31379;DHT22;61664;48.112;11.662;2023-09-30T03:20:11;20.50;57.50
31379;DHT22;61664;48.112;11.662;2023-09-30T03:22:39;20.40;57.50
31379;DHT22;61664;48.112;11.662;2023-09-30T03:25:08;20.40;57.50
31379;DHT22;61664;48.112;11.662;2023-09-30T03:27:36;20.30;57.50
31379;DHT22;61664;48.112;11.662;2023-09-30T03:30:04;20.30;57.70
31379;DHT22;61664;48.112;11.662;2023-09-30T03:32:32;20.30;57.60
31379;DHT22;61664;48.112;11.662;2023-09-30T03:35:09;20.20;57.70
31379;DHT22;61664;48.112;11.662;2023-09-30T03:37:37;20.20;57.80
31379;DHT22;61664;48.112;11.662;2023-09-30T03:40:05;20.20;57.80
31379;DHT22;61664;48.112;11.662;2023-09-30T03:42:40;20.10;57.90
31379;DHT22;61664;48.112;11.662;2023-09-30T03:45:11;20.10;57.90
31379;DHT22;61664;48.112;11.662;2023-09-30T03:47:41;20.10;58.00
31379;DHT22;61664;48.112;11.662;2023-09-30T03:50:09;20.00;58.00
31379;DHT22;61664;48.112;11.662;2023-09-30T03:52:42;19.90;58.10
31379;DHT22;61664;48.112;11.662;2023-09-30T03:55:11;19.90;58.40
31379;DHT22;61664;48.112;11.662;2023-09-30T03:57:39;19.90;57.90
31379;DHT22;61664;48.112;11.662;2023-09-30T04:00:07;19.90;58.30
31379;DHT22;61664;48.112;11.662;2023-09-30T04:02:38;19.90;58.40
31379;DHT22;61664;48.112;11.662;2023-09-30T04:05:05;19.90;58.50
31379;DHT22;61664;48.112;11.662;2023-09-30T04:07:32;19.90;58.70
31379;DHT22;61664;48.112;11.662;2023-09-30T04:09:59;19.90;58.70
31379;DHT22;61664;48.112;11.662;2023-09-30T04:12:28;19.90;58.60
31379;DHT22;61664;48.112;11.662;2023-09-30T04:14:55;20.00;58.70
31379;DHT22;61664;48.112;11.662;2023-09-30T04:17:22;20.00;58.80
31379;DHT22;61664;48.112;11.662;2023-09-30T04:19:49;19.90;59.30
31379;DHT22;61664;48.112;11.662;2023-09-30T04:22:19;20.00;58.90
31379;DHT22;61664;48.112;11.662;2023-09-30T04:24:47;20.00;58.80
31379;DHT22;61664;48.112;11.662;2023-09-30T04:27:20;20.00;58.90
31379;DHT22;61664;48.112;11.662;2023-09-30T04:29:48;20.00;58.80
31379;DHT22;61664;48.112;11.662;2023-09-30T04:32:16;20.00;58.80
31379;DHT22;61664;48.112;11.662;2023-09-30T04:34:43;20.00;58.80
31379;DHT22;61664;48.112;11.662;2023-09-30T04:37:13;19.90;58.80
31379;DHT22;61664;48.112;11.662;2023-09-30T04:39:40;20.00;58.90
31379;DHT22;61664;48.112;11.662;2023-09-30T04:42:07;19.90;58.90
31379;DHT22;61664;48.112;11.662;2023-09-30T04:44:38;19.90;59.00
31379;DHT22;61664;48.112;11.662;2023-09-30T04:47:05;19.90;59.00
31379;DHT22;61664;48.112;11.662;2023-09-30T04:49:32;19.90;59.00
31379;DHT22;61664;48.112;11.662;2023-09-30T04:51:59;19.90;59.10
31379;DHT22;61664;48.112;11.662;2023-09-30T04:54:26;19.80;59.10
31379;DHT22;61664;48.112;11.662;2023-09-30T04:56:56;19.80;59.10
31379;DHT22;61664;48.112;11.662;2023-09-30T04:59:23;19.70;59.10
31379;DHT22;61664;48.112;11.662;2023-09-30T05:01:51;19.70;59.20
31379;DHT22;61664;48.112;11.662;2023-09-30T05:04:18;19.70;59.30
31379;DHT22;61664;48.112;11.662;2023-09-30T05:06:46;19.60;59.30
31379;DHT22;61664;48.112;11.662;2023-09-30T05:09:12;19.60;59.40
31379;DHT22;61664;48.112;11.662;2023-09-30T05:11:39;19.60;59.50
31379;DHT22;61664;48.112;11.662;2023-09-30T05:14:06;19.60;59.50
31379;DHT22;61664;48.112;11.662;2023-09-30T05:16:33;19.50;59.60
31379;DHT22;61664;48.112;11.662;2023-09-30T05:19:00;19.50;59.60
31379;DHT22;61664;48.112;11.662;2023-09-30T05:21:27;19.50;59.70
31379;DHT22;61664;48.112;11.662;2023-09-30T05:23:54;19.40;59.80
31379;DHT22;61664;48.112;11.662;2023-09-30T05:26:23;19.40;59.90
31379;DHT22;61664;48.112;11.662;2023-09-30T05:28:50;19.40;60.00
31379;DHT22;61664;48.112;11.662;2023-09-30T05:31:17;19.40;60.10
31379;DHT22;61664;48.112;11.662;2023-09-30T05:33:44;19.40;60.20
31379;DHT22;61664;48.112;11.662;2023-09-30T05:36:11;19.40;60.30
31379;DHT22;61664;48.112;11.662;2023-09-30T05:38:40;19.40;60.40
31379;DHT22;61664;48.112;11.662;2023-09-30T05:41:07;19.40;60.50
31379;DHT22;61664;48.112;11.662;2023-09-30T05:43:34;19.50;60.50
31379;DHT22;61664;48.112;11.662;2023-09-30T05:46:01;19.50;60.60
31379;DHT22;61664;48.112;11.662;2023-09-30T05:48:29;19.50;60.50
31379;DHT22;61664;48.112;11.662;2023-09-30T05:50:57;19.50;60.50
31379;DHT22;61664;48.112;11.662;2023-09-30T05:53:24;19.60;60.40
31379;DHT22;61664;48.112;11.662;2023-09-30T05:55:51;19.60;60.40
31379;DHT22;61664;48.112;11.662;2023-09-30T05:58:18;19.60;60.40
31379;DHT22;61664;48.112;11.662;2023-09-30T06:00:45;19.60;60.40
31379;DHT22;61664;48.112;11.662;2023-09-30T06:03:12;19.60;60.40
31379;DHT22;61664;48.112;11.662;2023-09-30T06:05:40;19.60;60.50
31379;DHT22;61664;48.112;11.662;2023-09-30T06:08:09;19.70;60.60
31379;DHT22;61664;48.112;11.662;2023-09-30T06:10:43;19.60;60.50
31379;DHT22;61664;48.112;11.662;2023-09-30T06:13:11;19.60;60.40
31379;DHT22;61664;48.112;11.662;2023-09-30T06:15:42;19.70;60.60
31379;DHT22;61664;48.112;11.662;2023-09-30T06:18:10;19.70;60.70
31379;DHT22;61664;48.112;11.662;2023-09-30T06:20:41;19.60;60.40
31379;DHT22;61664;48.112;11.662;2023-09-30T06:23:08;19.60;60.40
31379;DHT22;61664;48.112;11.662;2023-09-30T06:25:36;19.60;60.50
31379;DHT22;61664;48.112;11.662;2023-09-30T06:28:04;19.60;60.50
31379;DHT22;61664;48.112;11.662;2023-09-30T06:30:31;19.60;60.60
31379;DHT22;61664;48.112;11.662;2023-09-30T06:33:01;19.70;60.70
31379;DHT22;61664;48.112;11.662;2023-09-30T06:35:32;19.60;60.70
31379;DHT22;61664;48.112;11.662;2023-09-30T06:38:04;19.60;60.60
31379;DHT22;61664;48.112;11.662;2023-09-30T06:40:33;19.60;61.10
31379;DHT22;61664;48.112;11.662;2023-09-30T06:43:04;19.60;60.70
31379;DHT22;61664;48.112;11.662;2023-09-30T06:45:31;19.70;60.80
31379;DHT22;61664;48.112;11.662;2023-09-30T06:47:59;19.70;60.70
31379;DHT22;61664;48.112;11.662;2023-09-30T06:50:26;19.70;60.60
31379;DHT22;61664;48.112;11.662;2023-09-30T06:52:53;19.70;60.70
31379;DHT22;61664;48.112;11.662;2023-09-30T06:55:21;19.70;60.70
31379;DHT22;61664;48.112;11.662;2023-09-30T06:57:48;19.60;60.60
31379;DHT22;61664;48.112;11.662;2023-09-30T07:00:15;19.70;60.70
31379;DHT22;61664;48.112;11.662;2023-09-30T07:02:43;19.60;60.70
31379;DHT22;61664;48.112;11.662;2023-09-30T07:05:12;19.70;60.70
31379;DHT22;61664;48.112;11.662;2023-09-30T07:07:42;19.70;60.60
31379;DHT22;61664;48.112;11.662;2023-09-30T07:10:10;19.70;60.60
31379;DHT22;61664;48.112;11.662;2023-09-30T07:12:38;19.80;60.60
31379;DHT22;61664;48.112;11.662;2023-09-30T07:15:07;19.80;60.60
31379;DHT22;61664;48.112;11.662;2023-09-30T07:17:35;19.90;60.80
31379;DHT22;61664;48.112;11.662;2023-09-30T07:20:04;19.90;60.50
31379;DHT22;61664;48.112;11.662;2023-09-30T07:22:33;19.90;60.40
31379;DHT22;61664;48.112;11.662;2023-09-30T07:25:12;20.00;60.40
31379;DHT22;61664;48.112;11.662;2023-09-30T07:27:42;20.00;60.30
31379;DHT22;61664;48.112;11.662;2023-09-30T07:30:13;20.00;60.20
31379;DHT22;61664;48.112;11.662;2023-09-30T07:32:42;20.00;60.20
31379;DHT22;61664;48.112;11.662;2023-09-30T07:35:10;20.00;60.00
31379;DHT22;61664;48.112;11.662;2023-09-30T07:37:37;20.00;60.10
31379;DHT22;61664;48.112;11.662;2023-09-30T07:40:05;20.00;60.10
31379;DHT22;61664;48.112;11.662;2023-09-30T07:42:33;20.10;60.10
31379;DHT22;61664;48.112;11.662;2023-09-30T07:45:00;20.10;60.20
31379;DHT22;61664;48.112;11.662;2023-09-30T07:47:30;20.10;60.10
31379;DHT22;61664;48.112;11.662;2023-09-30T07:50:00;20.10;60.10
31379;DHT22;61664;48.112;11.662;2023-09-30T07:52:32;20.10;60.00
31379;DHT22;61664;48.112;11.662;2023-09-30T07:54:59;20.10;59.90
31379;DHT22;61664;48.112;11.662;2023-09-30T07:57:26;20.10;59.80
31379;DHT22;61664;48.112;11.662;2023-09-30T07:59:53;20.10;59.80
31379;DHT22;61664;48.112;11.662;2023-09-30T08:02:21;20.10;60.00
31379;DHT22;61664;48.112;11.662;2023-09-30T08:04:49;20.10;59.90
31379;DHT22;61664;48.112;11.662;2023-09-30T08:07:16;20.10;59.90
31379;DHT22;61664;48.112;11.662;2023-09-30T08:09:43;20.20;59.80
31379;DHT22;61664;48.112;11.662;2023-09-30T08:12:10;20.20;59.80
31379;DHT22;61664;48.112;11.662;2023-09-30T08:14:37;20.20;60.00
31379;DHT22;61664;48.112;11.662;2023-09-30T08:17:04;20.30;60.10
31379;DHT22;61664;48.112;11.662;2023-09-30T08:19:31;20.50;60.00
31379;DHT22;61664;48.112;11.662;2023-09-30T08:21:58;20.70;59.80
31379;DHT22;61664;48.112;11.662;2023-09-30T08:24:29;20.80;59.60
31379;DHT22;61664;48.112;11.662;2023-09-30T08:26:56;21.00;59.20
31379;DHT22;61664;48.112;11.662;2023-09-30T08:29:23;21.20;59.00
31379;DHT22;61664;48.112;11.662;2023-09-30T08:31:50;21.30;58.70
31379;DHT22;61664;48.112;11.662;2023-09-30T08:34:17;21.30;58.40
31379;DHT22;61664;48.112;11.662;2023-09-30T08:36:47;21.30;58.10
31379;DHT22;61664;48.112;11.662;2023-09-30T08:39:14;21.30;58.30
31379;DHT22;61664;48.112;11.662;2023-09-30T08:41:41;21.40;58.50
31379;DHT22;61664;48.112;11.662;2023-09-30T08:44:10;21.70;58.10
31379;DHT22;61664;48.112;11.662;2023-09-30T08:46:38;22.00;57.30
31379;DHT22;61664;48.112;11.662;2023-09-30T08:49:06;22.10;56.90
31379;DHT22;61664;48.112;11.662;2023-09-30T08:51:35;22.20;56.80
31379;DHT22;61664;48.112;11.662;2023-09-30T08:54:03;22.30;56.60
31379;DHT22;61664;48.112;11.662;2023-09-30T08:56:31;22.30;56.80
31379;DHT22;61664;48.112;11.662;2023-09-30T08:59:02;22.30;56.90
31379;DHT22;61664;48.112;11.662;2023-09-30T09:01:30;22.30;57.00
31379;DHT22;61664;48.112;11.662;2023-09-30T09:03:58;22.40;56.70
31379;DHT22;61664;48.112;11.662;2023-09-30T09:06:26;22.40;56.50
31379;DHT22;61664;48.112;11.662;2023-09-30T09:08:53;22.30;56.50
31379;DHT22;61664;48.112;11.662;2023-09-30T09:11:20;22.30;56.40
31379;DHT22;61664;48.112;11.662;2023-09-30T09:13:49;22.20;56.50
31379;DHT22;61664;48.112;11.662;2023-09-30T09:16:23;22.30;56.60
31379;DHT22;61664;48.112;11.662;2023-09-30T09:18:51;22.40;56.30
31379;DHT22;61664;48.112;11.662;2023-09-30T09:21:20;22.70;56.40
31379;DHT22;61664;48.112;11.662;2023-09-30T09:23:53;23.00;56.10
31379;DHT22;61664;48.112;11.662;2023-09-30T09:26:26;23.20;55.90
31379;DHT22;61664;48.112;11.662;2023-09-30T09:28:58;23.50;55.10
31379;DHT22;61664;48.112;11.662;2023-09-30T09:31:32;23.80;55.00
31379;DHT22;61664;48.112;11.662;2023-09-30T09:34:13;24.10;54.00
31379;DHT22;61664;48.112;11.662;2023-09-30T09:36:45;24.30;53.20
31379;DHT22;61664;48.112;11.662;2023-09-30T09:39:12;24.30;53.10
31379;DHT22;61664;48.112;11.662;2023-09-30T09:41:50;24.30;53.00
31379;DHT22;61664;48.112;11.662;2023-09-30T09:44:22;24.20;51.60
31379;DHT22;61664;48.112;11.662;2023-09-30T09:46:50;24.00;52.00
31379;DHT22;61664;48.112;11.662;2023-09-30T09:49:18;23.90;52.60
31379;DHT22;61664;48.112;11.662;2023-09-30T09:51:48;23.70;52.80
31379;DHT22;61664;48.112;11.662;2023-09-30T09:54:17;23.60;52.90
31379;DHT22;61664;48.112;11.662;2023-09-30T09:56:46;23.60;53.50
31379;DHT22;61664;48.112;11.662;2023-09-30T09:59:16;23.60;53.30
31379;DHT22;61664;48.112;11.662;2023-09-30T10:01:43;23.70;53.70
31379;DHT22;61664;48.112;11.662;2023-09-30T10:04:12;23.90;54.00
31379;DHT22;61664;48.112;11.662;2023-09-30T10:06:44;24.10;53.20
31379;DHT22;61664;48.112;11.662;2023-09-30T10:09:18;24.30;52.70
31379;DHT22;61664;48.112;11.662;2023-09-30T10:11:47;24.60;52.70
31379;DHT22;61664;48.112;11.662;2023-09-30T10:14:31;24.90;52.20
31379;DHT22;61664;48.112;11.662;2023-09-30T10:17:02;25.20;51.30
31379;DHT22;61664;48.112;11.662;2023-09-30T10:19:30;25.30;51.00
31379;DHT22;61664;48.112;11.662;2023-09-30T10:24:47;25.60;49.30
31379;DHT22;61664;48.112;11.662;2023-09-30T10:40:57;26.00;48.90
31379;DHT22;61664;48.112;11.662;2023-09-30T10:48:53;25.90;49.40
31379;DHT22;61664;48.112;11.662;2023-09-30T10:51:21;25.70;48.00
31379;DHT22;61664;48.112;11.662;2023-09-30T10:53:54;25.50;47.70
31379;DHT22;61664;48.112;11.662;2023-09-30T10:56:33;25.40;47.10
31379;DHT22;61664;48.112;11.662;2023-09-30T10:59:00;25.20;47.00
31379;DHT22;61664;48.112;11.662;2023-09-30T11:01:33;25.10;47.90
31379;DHT22;61664;48.112;11.662;2023-09-30T11:04:03;24.90;47.50
31379;DHT22;61664;48.112;11.662;2023-09-30T11:06:32;24.90;48.50
31379;DHT22;61664;48.112;11.662;2023-09-30T11:09:01;24.80;48.80
31379;DHT22;61664;48.112;11.662;2023-09-30T11:11:39;24.80;49.10
31379;DHT22;61664;48.112;11.662;2023-09-30T11:14:21;24.80;48.00
31379;DHT22;61664;48.112;11.662;2023-09-30T11:16:52;24.90;48.40
31379;DHT22;61664;48.112;11.662;2023-09-30T11:19:21;24.90;48.50
31379;DHT22;61664;48.112;11.662;2023-09-30T11:21:50;24.90;48.40
31379;DHT22;61664;48.112;11.662;2023-09-30T11:24:22;24.90;48.10
31379;DHT22;61664;48.112;11.662;2023-09-30T11:26:53;24.90;48.50
31379;DHT22;61664;48.112;11.662;2023-09-30T11:29:23;24.90;47.60
31379;DHT22;61664;48.112;11.662;2023-09-30T11:31:51;24.90;47.90
31379;DHT22;61664;48.112;11.662;2023-09-30T11:34:34;24.80;47.90
31379;DHT22;61664;48.112;11.662;2023-09-30T11:37:07;24.80;47.30
31379;DHT22;61664;48.112;11.662;2023-09-30T11:39:37;24.80;47.60
31379;DHT22;61664;48.112;11.662;2023-09-30T11:42:15;24.80;47.20
31379;DHT22;61664;48.112;11.662;2023-09-30T11:44:47;24.70;46.50
31379;DHT22;61664;48.112;11.662;2023-09-30T11:47:15;24.60;46.90
31379;DHT22;61664;48.112;11.662;2023-09-30T11:49:43;24.60;47.30
31379;DHT22;61664;48.112;11.662;2023-09-30T11:52:16;24.60;47.50
31379;DHT22;61664;48.112;11.662;2023-09-30T11:54:44;24.50;47.90
31379;DHT22;61664;48.112;11.662;2023-09-30T11:57:16;24.50;48.00
31379;DHT22;61664;48.112;11.662;2023-09-30T11:59:45;24.50;48.00
31379;DHT22;61664;48.112;11.662;2023-09-30T12:02:13;24.50;48.40
31379;DHT22;61664;48.112;11.662;2023-09-30T12:04:44;24.50;48.20
31379;DHT22;61664;48.112;11.662;2023-09-30T12:07:12;24.60;48.00
31379;DHT22;61664;48.112;11.662;2023-09-30T12:09:40;24.60;47.60
31379;DHT22;61664;48.112;11.662;2023-09-30T12:12:08;24.70;47.40
31379;DHT22;61664;48.112;11.662;2023-09-30T12:14:40;24.70;47.10
31379;DHT22;61664;48.112;11.662;2023-09-30T12:17:07;24.80;46.80
31379;DHT22;61664;48.112;11.662;2023-09-30T12:19:39;24.90;46.50
31379;DHT22;61664;48.112;11.662;2023-09-30T12:22:09;24.80;46.40
31379;DHT22;61664;48.112;11.662;2023-09-30T12:24:37;24.90;46.20
31379;DHT22;61664;48.112;11.662;2023-09-30T12:27:04;24.90;45.90
31379;DHT22;61664;48.112;11.662;2023-09-30T12:29:31;24.90;45.70
31379;DHT22;61664;48.112;11.662;2023-09-30T12:31:58;24.90;46.10
31379;DHT22;61664;48.112;11.662;2023-09-30T12:34:28;24.90;45.80
31379;DHT22;61664;48.112;11.662;2023-09-30T12:36:55;24.80;46.10
31379;DHT22;61664;48.112;11.662;2023-09-30T12:39:25;24.90;46.20
31379;DHT22;61664;48.112;11.662;2023-09-30T12:41:54;24.90;46.30
31379;DHT22;61664;48.112;11.662;2023-09-30T12:44:21;24.90;46.50
31379;DHT22;61664;48.112;11.662;2023-09-30T12:46:49;24.90;46.20
31379;DHT22;61664;48.112;11.662;2023-09-30T12:49:17;24.90;46.00
31379;DHT22;61664;48.112;11.662;2023-09-30T12:51:44;24.90;46.40
31379;DHT22;61664;48.112;11.662;2023-09-30T12:54:12;25.00;46.40
31379;DHT22;61664;48.112;11.662;2023-09-30T12:56:41;25.00;46.30
31379;DHT22;61664;48.112;11.662;2023-09-30T12:59:09;25.00;46.30
31379;DHT22;61664;48.112;11.662;2023-09-30T13:01:35;25.00;46.00
31379;DHT22;61664;48.112;11.662;2023-09-30T13:04:03;25.00;46.00
31379;DHT22;61664;48.112;11.662;2023-09-30T13:06:35;25.00;45.60
31379;DHT22;61664;48.112;11.662;2023-09-30T13:09:02;25.00;45.50
31379;DHT22;61664;48.112;11.662;2023-09-30T13:11:33;24.90;45.20
31379;DHT22;61664;48.112;11.662;2023-09-30T13:14:03;24.90;45.30
31379;DHT22;61664;48.112;11.662;2023-09-30T13:16:30;24.80;45.30
31379;DHT22;61664;48.112;11.662;2023-09-30T13:18:58;24.80;45.50
31379;DHT22;61664;48.112;11.662;2023-09-30T13:21:25;24.80;45.70
31379;DHT22;61664;48.112;11.662;2023-09-30T13:23:52;24.80;45.70
31379;DHT22;61664;48.112;11.662;2023-09-30T13:26:19;24.80;45.80
31379;DHT22;61664;48.112;11.662;2023-09-30T13:28:46;24.80;45.80
31379;DHT22;61664;48.112;11.662;2023-09-30T13:31:13;24.80;45.60
31379;DHT22;61664;48.112;11.662;2023-09-30T13:33:40;24.90;45.80
31379;DHT22;61664;48.112;11.662;2023-09-30T13:36:08;25.00;46.20
31379;DHT22;61664;48.112;11.662;2023-09-30T13:38:35;25.00;45.50
31379;DHT22;61664;48.112;11.662;2023-09-30T13:41:03;25.00;45.60
31379;DHT22;61664;48.112;11.662;2023-09-30T13:43:30;25.10;45.60
31379;DHT22;61664;48.112;11.662;2023-09-30T13:45:57;25.10;45.40
31379;DHT22;61664;48.112;11.662;2023-09-30T13:48:24;25.10;45.30
31379;DHT22;61664;48.112;11.662;2023-09-30T13:50:51;25.10;45.60
31379;DHT22;61664;48.112;11.662;2023-09-30T13:53:18;25.10;45.50
31379;DHT22;61664;48.112;11.662;2023-09-30T13:55:45;25.10;45.60
31379;DHT22;61664;48.112;11.662;2023-09-30T13:58:13;25.20;45.70
31379;DHT22;61664;48.112;11.662;2023-09-30T14:00:46;25.20;46.10
31379;DHT22;61664;48.112;11.662;2023-09-30T14:03:14;25.20;45.30
31379;DHT22;61664;48.112;11.662;2023-09-30T14:05:41;25.30;45.40
31379;DHT22;61664;48.112;11.662;2023-09-30T14:08:09;25.30;45.50
31379;DHT22;61664;48.112;11.662;2023-09-30T14:10:36;25.30;45.40
31379;DHT22;61664;48.112;11.662;2023-09-30T14:13:04;25.40;45.30
31379;DHT22;61664;48.112;11.662;2023-09-30T14:15:31;25.40;45.10
31379;DHT22;61664;48.112;11.662;2023-09-30T14:17:58;25.40;44.90
31379;DHT22;61664;48.112;11.662;2023-09-30T14:20:25;25.50;44.90
31379;DHT22;61664;48.112;11.662;2023-09-30T14:22:52;25.50;44.80
31379;DHT22;61664;48.112;11.662;2023-09-30T14:25:20;25.50;44.90
31379;DHT22;61664;48.112;11.662;2023-09-30T14:27:51;25.50;44.80
31379;DHT22;61664;48.112;11.662;2023-09-30T14:30:18;25.50;44.30
31379;DHT22;61664;48.112;11.662;2023-09-30T14:32:47;25.60;44.60
31379;DHT22;61664;48.112;11.662;2023-09-30T14:35:14;25.50;44.40
31379;DHT22;61664;48.112;11.662;2023-09-30T14:37:42;25.50;44.30
31379;DHT22;61664;48.112;11.662;2023-09-30T14:40:09;25.40;44.10
31379;DHT22;61664;48.112;11.662;2023-09-30T14:42:37;25.40;44.40
31379;DHT22;61664;48.112;11.662;2023-09-30T14:45:05;25.30;44.30
31379;DHT22;61664;48.112;11.662;2023-09-30T14:47:33;25.30;44.30
31379;DHT22;61664;48.112;11.662;2023-09-30T14:50:00;25.20;44.40
31379;DHT22;61664;48.112;11.662;2023-09-30T14:52:28;25.10;44.40
31379;DHT22;61664;48.112;11.662;2023-09-30T14:54:55;25.10;44.40
31379;DHT22;61664;48.112;11.662;2023-09-30T14:57:22;25.00;44.80
31379;DHT22;61664;48.112;11.662;2023-09-30T14:59:49;25.00;44.40
31379;DHT22;61664;48.112;11.662;2023-09-30T15:02:16;24.90;44.20
31379;DHT22;61664;48.112;11.662;2023-09-30T15:04:44;24.90;44.20
31379;DHT22;61664;48.112;11.662;2023-09-30T15:07:11;24.80;44.20
31379;DHT22;61664;48.112;11.662;2023-09-30T15:09:39;24.80;44.20
31379;DHT22;61664;48.112;11.662;2023-09-30T15:12:09;24.70;44.30
31379;DHT22;61664;48.112;11.662;2023-09-30T15:14:36;24.60;44.20
31379;DHT22;61664;48.112;11.662;2023-09-30T15:17:03;24.60;44.30
31379;DHT22;61664;48.112;11.662;2023-09-30T15:19:30;24.50;44.50
31379;DHT22;61664;48.112;11.662;2023-09-30T15:21:57;24.40;44.70
31379;DHT22;61664;48.112;11.662;2023-09-30T15:24:25;24.30;44.70
31379;DHT22;61664;48.112;11.662;2023-09-30T15:26:52;24.30;44.90
31379;DHT22;61664;48.112;11.662;2023-09-30T15:29:19;24.20;45.10
31379;DHT22;61664;48.112;11.662;2023-09-30T15:31:45;24.20;45.30
31379;DHT22;61664;48.112;11.662;2023-09-30T15:34:13;24.10;45.40
31379;DHT22;61664;48.112;11.662;2023-09-30T15:36:40;24.10;45.40
31379;DHT22;61664;48.112;11.662;2023-09-30T15:39:08;24.00;45.30
31379;DHT22;61664;48.112;11.662;2023-09-30T15:41:34;24.00;45.30
31379;DHT22;61664;48.112;11.662;2023-09-30T15:44:01;24.00;45.40
31379;DHT22;61664;48.112;11.662;2023-09-30T15:46:29;24.00;45.50